Grady, NM

4:47 AM MDT on September 17, 2014 (GMT -0600)
Tucumcari Municipal | Change Station
CLOSE
Current Station
Airport
Location: Tucumcari,
Elevation: 4065 ft
Nearby Weather Stations

Elev 4065 ft 35.18 °N, 103.60 °W | Updated 54 minutes ago

Partly Cloudy
Partly Cloudy
63 °F
Feels Like 63 °F
N
4
Wind Variable Wind from South

Today
High -- | Low -- °F
--% Chance of Precip.
Yesterday
High -- | Low -- °F
Precip. -- in
6:37 AM 6:57 PM
Last Quarter, 37% visible
Pressure 29.93 in
Visibility 10.0 miles
Clouds Clear
Dew Point 58 °F
Humidity 84%
Rainfall 0.00 in
Snow Depth 0 in , 0 in , 0 in
UV 0 out of 12
Pollen 8.90 out of 12
Air Quality Not available.
Flu Activity Not available.
METAR KTCC 170953Z AUTO 19003KT 10SM CLR 17/14 A3009 RMK AO2 SLP134 T01720144

More Conditions Fewer Conditions

Pressure 29.93 in
Visibility 10.0 miles
Clouds Clear
Dew Point 58 °F
Humidity 84%
Rainfall 0.00 in
Snow Depth 0 in , 0 in , 0 in
UV 0 out of 12
Pollen 8.90 out of 12
Air Quality Not available.
Flu Activity Not available.
METAR KTCC 170953Z AUTO 19003KT 10SM CLR 17/14 A3009 RMK AO2 SLP134 T01720144

More Conditions Fewer Conditions

10-Day Weather Forecast

Almanac

Astronomy

Sep. 17, 2014 Rise Set
Actual Time 6:37 AM MDT 6:57 PM MDT
Civil Twilight 6:12 AM MDT 7:22 PM MDT
Nautical Twilight 5:42 AM MDT 7:51 PM MDT
Astronomical Twilight 5:12 AM MDT 8:21 PM MDT
Moon 12:49 AM MDT 2:59 PM MDT
Length of Visible Light 13h 09m
Length of Day
12h 19m
Tomorrow will be 2m 10s shorter.
Last Quarter, 37% of the Moon is Illuminated
Today
Last Quarter
Sep 24
New
Oct 1
First Quarter
Oct 8
Full
Oct 15
Last Quarter

Today's Extremes

State Highs State Lows

Community

WunderPhotos

Upload Photos

1,753,993 photos uploaded!

Nearby

Snow Depth

Station Depth Elevation
Senorita Divide #2 0 in 8600 ft
Chamita 0 in 8400 ft
North Costilla 1 in 10600 ft
Red River Pass #2 0 in 9850 ft
McKnight Cabin 0 in 9240 ft

Earthquake Activity

City Distance Mag. Time & Date
No recent earthquake activity has been reported nearby.
Minimum magnitude displayed is 2.5.

Coastal Water Temperatures

Place Temperature
No Stations Reporting

Nearby Weather Stations